Amston, CT

3:00 PM EST on January 31, 2015 (GMT -0500)
Amston | Change Station
CLOSE
Current Station
Personal Weather Station
Location: Amston, CT
Elevation: 459 ft
Nearby Weather Stations
Active Advisory: Winter Storm Watch

Elev 459 ft 41.64 °N, 72.36 °W | Updated 12 minutes ago

Clear
Clear
19.1 °F
Feels Like 11 °F
N
6.0
Wind Variable Wind from NW
Gusts 10.0 mph

Today
High -- | Low -- °F
--% Chance of Precip.
Yesterday
High -- | Low -- °F
Precip. -- in
7:02 AM 5:03 PM
Waxing Gibbous, 91% visible
Pressure 29.99 in
Visibility 10.0 miles
Clouds Clear
Windchill 11 °F
Dew Point -1 °F
Humidity 41%
Rainfall 0.00 in
Snow Depth Not available.
UV 1 out of 12
Pollen .10 out of 12
Air Quality Not available.
Flu Activity Not available.
METAR KIJD 311952Z AUTO 31012G23KT 270V340 10SM CLR M07/M21 A2997 RMK AO2 SLP153 T10721211

More Conditions Fewer Conditions

Pressure 29.99 in
Visibility 10.0 miles
Clouds Clear
Windchill 11 °F
Dew Point -1 °F
Humidity 41%
Rainfall 0.00 in
Snow Depth Not available.
UV 1 out of 12
Pollen .10 out of 12
Air Quality Not available.
Flu Activity Not available.
METAR KIJD 311952Z AUTO 31012G23KT 270V340 10SM CLR M07/M21 A2997 RMK AO2 SLP153 T10721211

More Conditions Fewer Conditions

10-Day Weather Forecast

Almanac

Astronomy

Jan. 31, 2015 Rise Set
Actual Time
Civil Twilight
Nautical Twilight
Astronomical Twilight
Moon
Length of Visible Light
Length of Day
Tomorrow will be .
, % of the Moon is Illuminated

Today's Extremes

State Highs State Lows

Community

WunderPhotos

Upload Photos

1,792,173 photos uploaded!

WunderBlogs® & News

Nearby

Air Quality

  Air Quality AQ Index Pollutant
Not available.

Snow Depth

Station Depth Elevation

Earthquake Activity

City Distance Mag. Time & Date
Minimum magnitude displayed is 2.5.

Coastal Water Temperatures

Place Temperature

Nearby Weather Stations